Brooks, Minnesota
Current Conditions -  °F | °C
As of 11:52 PM on Monday 26 Jan 2015 (Local Time) from KFSE Reporting Station
Overcast Overcast  
Wind Chill: 25°   Ceiling: 600
Heat Index: 25°   Visibility: 10mi
Dew Point: 23°   Wind: 0mph
Humidity: 93%   Direction: NA
Pressure: 30.02"   Gusts: NA
Location:  47.81°N, 96°W
Report Text: KFSE 270552Z AUTO 00000KT 10SM OVC006 M04/M05 A3002 RMK AO2
Loading
Personal Weather Stations






























Interactive Weather Map New forecast layout! Learn more

10-Day Weather Forecast

Advertisements
Track Severe Weather on mobile